»·PEaware :: N287JB KAMA-KDEN

N287JB :: KAMA-KDEN

FLIGHT INFORMATION

Flight Status: Arrived
Operator: Privately registered:
United States
More flights under this callsign
Pilot: John L. (16055)
Aircraft: Unknown
(VIPJ)
More flights by this aircraft type
Origin: KAMA Amarillo Intl
United States
Destination: KDEN Denver Intl
United States
More flights between these airports :: More routes between these airports
Route: +QUAIL QUAIL8
File this flight plan on PilotEdge
Remarks: EVIC / G
Altitude:
(Current/Filed)
25,000ft
Speed:
(Current/Filed)
300kts
Departed: 06-Aug-17 09:48 PM
Arrived: 06-Aug-17 10:54 PM
Distance/Time
Traveled:
311nm/1:06
Distance/Time
To Go:
Arrived

Flight Plot

Page will automatically refresh every two minutes.

Flight plan parsing failed; only flown route is shown


Map Options




Map Legend


Flown Route
Filed Route
Departure Airport
Arrival Airport
Navaid (VOR, NDB)
Fix

Horizontal Profiles

Position Reports

Time Latitude Longitude Heading Altitude Ground
Speed
06-Aug-17 21:28 35.213513 -101.715478 47 3610ft 0kts
06-Aug-17 21:29 35.213513 -101.715478 47 3610ft 0kts
06-Aug-17 21:30 35.213513 -101.715478 47 3610ft 0kts
06-Aug-17 21:31 35.213513 -101.715478 47 3610ft 0kts
06-Aug-17 21:32 35.213513 -101.715478 47 3610ft 0kts
06-Aug-17 21:33 35.213513 -101.715478 47 3610ft 0kts
06-Aug-17 21:34 35.213513 -101.715478 47 3610ft 0kts
06-Aug-17 21:35 35.213513 -101.715478 47 3610ft 0kts
06-Aug-17 21:36 35.213513 -101.715478 47 3610ft 0kts
06-Aug-17 21:37 35.213513 -101.715478 47 3610ft 0kts
06-Aug-17 21:38 35.213513 -101.715478 47 3610ft 0kts
06-Aug-17 21:39 35.213513 -101.715478 47 3610ft 0kts
06-Aug-17 21:40 35.213513 -101.715478 47 3610ft 0kts
06-Aug-17 21:41 35.213513 -101.715478 47 3610ft 0kts
06-Aug-17 21:42 35.213939 -101.715057 7 3610ft 5kts
06-Aug-17 21:43 35.213388 -101.717020 224 3610ft 14kts
06-Aug-17 21:44 35.209175 -101.722281 223 3610ft 29kts
06-Aug-17 21:45 35.203560 -101.729326 223 3610ft 14kts
06-Aug-17 21:46 35.203428 -101.730468 296 3610ft 0kts
06-Aug-17 21:47 35.203428 -101.730468 296 3610ft 0kts
06-Aug-17 21:48 35.203428 -101.730468 296 3610ft 0kts
06-Aug-17 21:49 35.203474 -101.730567 302 3610ft 2kts
06-Aug-17 21:50 35.205179 -101.732316 6 3610ft 8kts
06-Aug-17 21:51 35.207315 -101.729827 45 3610ft 64kts
06-Aug-17 21:52 35.232427 -101.699786 43 5294ft 162kts
06-Aug-17 21:53 35.267685 -101.660762 43 8178ft 196kts
06-Aug-17 21:54 35.309541 -101.614420 43 11364ft 213kts
06-Aug-17 21:55 35.364677 -101.622656 328 14375ft 225kts
06-Aug-17 21:56 35.423705 -101.659865 329 17064ft 246kts
06-Aug-17 21:57 35.492684 -101.701966 330 18508ft 281kts
06-Aug-17 21:58 35.557463 -101.741314 329 22019ft 261kts
06-Aug-17 21:59 35.623401 -101.781539 329 23520ft 273kts
06-Aug-17 22:00 35.692193 -101.823464 329 25017ft 279kts
06-Aug-17 22:01 35.765004 -101.868119 329 25173ft 318kts
06-Aug-17 22:02 35.849266 -101.919736 329 25170ft 357kts
06-Aug-17 22:03 35.940874 -101.976065 330 25163ft 379kts
06-Aug-17 22:04 36.036997 -102.035247 330 25160ft 393kts
06-Aug-17 22:05 36.133848 -102.095078 330 25158ft 400kts
06-Aug-17 22:06 36.230500 -102.154957 330 25138ft 405kts
06-Aug-17 22:07 36.330973 -102.217379 330 25145ft 406kts
06-Aug-17 22:08 36.431929 -102.280290 330 25120ft 408kts
06-Aug-17 22:09 36.533760 -102.343932 330 24993ft 411kts
06-Aug-17 22:10 36.635197 -102.407574 330 24986ft 409kts
06-Aug-17 22:11 36.736678 -102.471317 330 24991ft 409kts
06-Aug-17 22:12 36.837670 -102.534988 330 25037ft 407kts
06-Aug-17 22:13 36.938037 -102.598459 330 25203ft 404kts
06-Aug-17 22:14 37.038303 -102.662068 329 25213ft 406kts
06-Aug-17 22:15 37.139024 -102.726138 329 25212ft 407kts
06-Aug-17 22:16 37.239731 -102.790400 329 25212ft 408kts
06-Aug-17 22:17 37.340930 -102.855166 329 25211ft 408kts
06-Aug-17 22:18 37.442313 -102.918830 330 25214ft 409kts
06-Aug-17 22:19 37.544295 -102.980989 330 25209ft 408kts
06-Aug-17 22:20 37.646193 -103.042953 330 25162ft 408kts
06-Aug-17 22:21 37.748061 -103.104891 330 25155ft 406kts
06-Aug-17 22:22 37.849410 -103.166441 330 25154ft 406kts
06-Aug-17 22:23 37.950853 -103.227918 330 25178ft 405kts
06-Aug-17 22:24 38.052315 -103.289282 331 25181ft 405kts
06-Aug-17 22:25 38.152700 -103.352323 319 25130ft 401kts
06-Aug-17 22:26 38.231879 -103.445321 326 25189ft 402kts
06-Aug-17 22:27 38.331061 -103.511491 329 25183ft 404kts
06-Aug-17 22:28 38.431019 -103.576559 329 25179ft 404kts
06-Aug-17 22:29 38.530874 -103.641722 329 25179ft 404kts
06-Aug-17 22:30 38.630480 -103.706930 329 25202ft 404kts
06-Aug-17 22:31 38.727040 -103.770326 328 25213ft 387kts
06-Aug-17 22:32 38.822643 -103.833310 328 25211ft 388kts
06-Aug-17 22:33 38.918636 -103.896735 328 24952ft 385kts
06-Aug-17 22:34 39.004150 -103.953401 328 22568ft 332kts
06-Aug-17 22:35 39.084491 -104.006810 329 19936ft 322kts
06-Aug-17 22:36 39.161549 -104.058010 329 17044ft 310kts
06-Aug-17 22:37 39.238387 -104.109401 329 17018ft 312kts
06-Aug-17 22:38 39.306115 -104.176842 315 17017ft 308kts
06-Aug-17 22:39 39.367109 -104.246814 315 17089ft 266kts
06-Aug-17 22:40 39.422606 -104.310883 315 16889ft 268kts
06-Aug-17 22:41 39.474729 -104.370898 314 15325ft 245kts
06-Aug-17 22:42 39.525676 -104.430361 314 13822ft 246kts
06-Aug-17 22:43 39.575869 -104.483495 348 12293ft 227kts
06-Aug-17 22:44 39.635553 -104.495929 358 11030ft 205kts
06-Aug-17 22:45 39.683169 -104.497509 358 11044ft 160kts
06-Aug-17 22:46 39.728244 -104.498924 358 11071ft 163kts
06-Aug-17 22:47 39.773716 -104.500336 358 11071ft 163kts
06-Aug-17 22:48 39.819009 -104.501811 358 11048ft 162kts
06-Aug-17 22:49 39.863913 -104.503520 358 11044ft 162kts
06-Aug-17 22:50 39.909177 -104.505247 358 10439ft 162kts
06-Aug-17 22:51 39.953801 -104.507379 346 9222ft 164kts
06-Aug-17 22:52 39.963058 -104.561359 268 7745ft 170kts
06-Aug-17 22:53 39.959815 -104.620099 267 7036ft 153kts
06-Aug-17 22:54 39.939249 -104.659352 180 6985ft 138kts
06-Aug-17 22:55 39.903133 -104.659651 181 6297ft 125kts
06-Aug-17 22:56 39.871124 -104.660042 181 5673ft 110kts
06-Aug-17 22:57 39.853828 -104.660012 179 5438ft 6kts
06-Aug-17 22:58 39.848246 -104.660107 180 5438ft 43kts
06-Aug-17 22:59 39.840694 -104.661433 210 5438ft 16kts
06-Aug-17 23:00 39.839288 -104.663887 236 5438ft 7kts
06-Aug-17 23:01 39.838223 -104.665102 207 5438ft 4kts
06-Aug-17 23:02 39.837824 -104.664917 5 5438ft 0kts

Navigation Log

Ident Type
Flight plan parsing failed, navigation log unavailable